sensor_id;sensor_type;location;lat;lon;timestamp;pressure;altitude;pressure_sealevel;temperature;humidity
48077;BME280;33854;57.708;12.008;2023-03-29T00:02:22;99235.41;;;0.97;100.00
48077;BME280;33854;57.708;12.008;2023-03-29T00:04:56;99159.72;;;1.07;100.00
48077;BME280;33854;57.708;12.008;2023-03-29T00:07:27;99106.44;;;1.12;100.00
48077;BME280;33854;57.708;12.008;2023-03-29T00:09:54;99046.38;;;1.16;100.00
48077;BME280;33854;57.708;12.008;2023-03-29T00:12:20;98988.44;;;1.07;100.00
48077;BME280;33854;57.708;12.008;2023-03-29T00:14:46;98936.19;;;1.08;100.00
48077;BME280;33854;57.708;12.008;2023-03-29T00:17:11;98904.06;;;1.20;100.00
48077;BME280;33854;57.708;12.008;2023-03-29T00:19:36;98879.03;;;1.25;100.00
48077;BME280;33854;57.708;12.008;2023-03-29T00:22:03;98856.56;;;1.30;100.00
48077;BME280;33854;57.708;12.008;2023-03-29T00:24:30;98827.41;;;1.31;100.00
48077;BME280;33854;57.708;12.008;2023-03-29T00:26:56;98800.97;;;1.28;100.00
48077;BME280;33854;57.708;12.008;2023-03-29T00:29:21;98762.44;;;1.28;100.00
48077;BME280;33854;57.708;12.008;2023-03-29T00:31:47;98742.53;;;1.33;100.00
48077;BME280;33854;57.708;12.008;2023-03-29T00:34:24;98747.50;;;1.37;100.00
48077;BME280;33854;57.708;12.008;2023-03-29T00:36:50;98703.81;;;1.37;100.00
48077;BME280;33854;57.708;12.008;2023-03-29T00:39:18;98653.88;;;1.43;100.00
48077;BME280;33854;57.708;12.008;2023-03-29T00:41:44;98640.50;;;1.55;100.00
48077;BME280;33854;57.708;12.008;2023-03-29T00:46:54;98635.94;;;1.61;100.00
48077;BME280;33854;57.708;12.008;2023-03-29T00:49:19;98644.28;;;1.66;100.00
48077;BME280;33854;57.708;12.008;2023-03-29T00:51:45;98645.91;;;1.69;100.00
48077;BME280;33854;57.708;12.008;2023-03-29T00:54:13;98651.94;;;1.68;100.00
48077;BME280;33854;57.708;12.008;2023-03-29T00:56:43;98648.22;;;1.75;100.00
48077;BME280;33854;57.708;12.008;2023-03-29T00:59:17;98660.84;;;1.80;100.00
48077;BME280;33854;57.708;12.008;2023-03-29T01:02:06;98641.03;;;1.82;100.00
48077;BME280;33854;57.708;12.008;2023-03-29T01:04:34;98620.47;;;1.82;100.00
48077;BME280;33854;57.708;12.008;2023-03-29T01:07:18;98587.25;;;1.77;100.00
48077;BME280;33854;57.708;12.008;2023-03-29T01:09:53;98567.28;;;1.82;100.00
48077;BME280;33854;57.708;12.008;2023-03-29T01:12:22;98541.72;;;1.79;100.00
48077;BME280;33854;57.708;12.008;2023-03-29T01:15:11;98525.13;;;1.86;100.00
48077;BME280;33854;57.708;12.008;2023-03-29T01:17:39;98507.03;;;1.88;100.00
48077;BME280;33854;57.708;12.008;2023-03-29T01:20:13;98503.75;;;1.84;100.00
48077;BME280;33854;57.708;12.008;2023-03-29T01:28:11;98476.13;;;1.89;100.00
48077;BME280;33854;57.708;12.008;2023-03-29T01:30:50;98462.31;;;1.90;100.00
48077;BME280;33854;57.708;12.008;2023-03-29T01:33:27;98441.84;;;1.89;100.00
48077;BME280;33854;57.708;12.008;2023-03-29T01:36:01;98426.31;;;1.90;100.00
48077;BME280;33854;57.708;12.008;2023-03-29T01:38:34;98420.19;;;1.93;100.00
48077;BME280;33854;57.708;12.008;2023-03-29T01:41:02;98423.47;;;1.96;100.00
48077;BME280;33854;57.708;12.008;2023-03-29T01:44:02;98441.09;;;2.04;100.00
48077;BME280;33854;57.708;12.008;2023-03-29T01:46:39;98491.28;;;2.12;100.00
48077;BME280;33854;57.708;12.008;2023-03-29T01:51:59;98571.25;;;2.26;100.00
48077;BME280;33854;57.708;12.008;2023-03-29T01:54:32;98616.38;;;2.34;100.00
48077;BME280;33854;57.708;12.008;2023-03-29T01:57:01;98636.97;;;2.34;100.00
48077;BME280;33854;57.708;12.008;2023-03-29T01:59:34;98646.28;;;2.36;100.00
48077;BME280;33854;57.708;12.008;2023-03-29T02:02:04;98649.94;;;2.32;100.00
48077;BME280;33854;57.708;12.008;2023-03-29T02:04:38;98641.13;;;2.36;100.00
48077;BME280;33854;57.708;12.008;2023-03-29T02:07:06;98616.38;;;2.34;100.00
48077;BME280;33854;57.708;12.008;2023-03-29T02:09:34;98593.63;;;2.24;100.00
48077;BME280;33854;57.708;12.008;2023-03-29T02:12:02;98614.66;;;2.34;100.00
48077;BME280;33854;57.708;12.008;2023-03-29T02:14:28;98600.03;;;2.35;100.00
48077;BME280;33854;57.708;12.008;2023-03-29T02:16:54;98627.38;;;2.37;100.00
48077;BME280;33854;57.708;12.008;2023-03-29T02:19:21;98635.00;;;2.39;100.00
48077;BME280;33854;57.708;12.008;2023-03-29T02:21:54;98714.75;;;2.40;100.00
48077;BME280;33854;57.708;12.008;2023-03-29T02:24:23;98653.88;;;2.39;100.00
48077;BME280;33854;57.708;12.008;2023-03-29T02:26:50;98621.25;;;2.40;100.00
48077;BME280;33854;57.708;12.008;2023-03-29T02:29:15;98573.22;;;2.39;100.00
48077;BME280;33854;57.708;12.008;2023-03-29T02:31:52;98537.88;;;2.42;100.00
48077;BME280;33854;57.708;12.008;2023-03-29T02:34:23;98499.38;;;2.41;100.00
48077;BME280;33854;57.708;12.008;2023-03-29T02:36:54;98465.13;;;2.39;100.00
48077;BME280;33854;57.708;12.008;2023-03-29T02:39:23;98423.72;;;2.43;100.00
48077;BME280;33854;57.708;12.008;2023-03-29T02:41:52;98397.22;;;2.41;100.00
48077;BME280;33854;57.708;12.008;2023-03-29T02:44:24;98363.53;;;2.46;100.00
48077;BME280;33854;57.708;12.008;2023-03-29T02:46:55;98360.97;;;2.46;100.00
48077;BME280;33854;57.708;12.008;2023-03-29T02:49:22;98322.56;;;2.41;100.00
48077;BME280;33854;57.708;12.008;2023-03-29T02:51:50;98262.34;;;2.28;100.00
48077;BME280;33854;57.708;12.008;2023-03-29T02:54:20;98253.63;;;2.30;100.00
48077;BME280;33854;57.708;12.008;2023-03-29T02:56:48;98204.97;;;2.26;100.00
48077;BME280;33854;57.708;12.008;2023-03-29T02:59:18;98145.28;;;2.19;100.00
48077;BME280;33854;57.708;12.008;2023-03-29T03:01:44;98092.25;;;2.17;100.00
48077;BME280;33854;57.708;12.008;2023-03-29T03:04:10;98042.19;;;2.07;100.00
48077;BME280;33854;57.708;12.008;2023-03-29T03:06:36;98015.66;;;2.06;100.00
48077;BME280;33854;57.708;12.008;2023-03-29T03:09:03;97997.16;;;2.00;100.00
48077;BME280;33854;57.708;12.008;2023-03-29T03:11:29;97893.31;;;1.71;100.00
48077;BME280;33854;57.708;12.008;2023-03-29T03:13:54;97890.91;;;1.84;100.00
48077;BME280;33854;57.708;12.008;2023-03-29T03:16:20;97874.72;;;1.82;100.00
48077;BME280;33854;57.708;12.008;2023-03-29T03:18:46;97837.72;;;1.84;100.00
48077;BME280;33854;57.708;12.008;2023-03-29T03:21:12;97768.28;;;1.84;100.00
48077;BME280;33854;57.708;12.008;2023-03-29T03:23:38;97751.41;;;1.80;100.00
48077;BME280;33854;57.708;12.008;2023-03-29T03:26:04;97712.84;;;1.80;100.00
48077;BME280;33854;57.708;12.008;2023-03-29T03:28:29;97676.91;;;1.79;100.00
48077;BME280;33854;57.708;12.008;2023-03-29T03:30:56;97626.31;;;1.79;100.00
48077;BME280;33854;57.708;12.008;2023-03-29T03:33:21;97597.13;;;1.80;100.00
48077;BME280;33854;57.708;12.008;2023-03-29T03:35:47;97563.53;;;1.83;100.00
48077;BME280;33854;57.708;12.008;2023-03-29T03:38:12;97531.72;;;1.84;100.00
48077;BME280;33854;57.708;12.008;2023-03-29T03:40:38;97488.03;;;1.84;100.00
48077;BME280;33854;57.708;12.008;2023-03-29T03:43:03;97465.53;;;1.88;100.00
48077;BME280;33854;57.708;12.008;2023-03-29T03:45:29;97442.31;;;1.89;100.00
48077;BME280;33854;57.708;12.008;2023-03-29T03:47:55;97435.38;;;1.90;100.00
48077;BME280;33854;57.708;12.008;2023-03-29T03:50:20;97448.34;;;1.88;100.00
48077;BME280;33854;57.708;12.008;2023-03-29T03:52:46;97389.94;;;1.90;100.00
48077;BME280;33854;57.708;12.008;2023-03-29T03:55:11;97361.44;;;1.93;100.00
48077;BME280;33854;57.708;12.008;2023-03-29T03:57:37;97329.56;;;1.96;100.00
48077;BME280;33854;57.708;12.008;2023-03-29T04:00:04;97314.88;;;1.98;100.00
48077;BME280;33854;57.708;12.008;2023-03-29T04:02:46;97295.84;;;2.00;100.00
48077;BME280;33854;57.708;12.008;2023-03-29T04:05:13;97287.19;;;2.01;100.00
48077;BME280;33854;57.708;12.008;2023-03-29T04:07:38;97275.28;;;2.00;100.00
48077;BME280;33854;57.708;12.008;2023-03-29T04:10:05;97246.75;;;1.91;100.00
48077;BME280;33854;57.708;12.008;2023-03-29T04:12:32;97246.38;;;1.97;100.00
48077;BME280;33854;57.708;12.008;2023-03-29T04:14:58;97223.09;;;1.98;100.00
48077;BME280;33854;57.708;12.008;2023-03-29T04:17:23;97216.34;;;1.97;100.00
48077;BME280;33854;57.708;12.008;2023-03-29T04:19:49;97217.97;;;1.98;100.00
48077;BME280;33854;57.708;12.008;2023-03-29T04:22:14;97211.19;;;1.97;100.00
48077;BME280;33854;57.708;12.008;2023-03-29T04:24:40;97195.84;;;1.96;100.00
48077;BME280;33854;57.708;12.008;2023-03-29T04:27:05;97196.59;;;1.98;100.00
48077;BME280;33854;57.708;12.008;2023-03-29T04:29:31;97157.91;;;1.99;100.00
48077;BME280;33854;57.708;12.008;2023-03-29T04:31:56;97162.13;;;2.00;100.00
48077;BME280;33854;57.708;12.008;2023-03-29T04:34:21;97144.31;;;1.97;100.00
48077;BME280;33854;57.708;12.008;2023-03-29T04:36:47;97123.75;;;1.97;100.00
48077;BME280;33854;57.708;12.008;2023-03-29T04:39:15;97104.00;;;1.98;100.00
48077;BME280;33854;57.708;12.008;2023-03-29T04:41:45;97067.06;;;1.99;100.00
48077;BME280;33854;57.708;12.008;2023-03-29T04:44:11;97069.63;;;1.99;100.00
48077;BME280;33854;57.708;12.008;2023-03-29T04:46:38;97053.16;;;2.01;100.00
48077;BME280;33854;57.708;12.008;2023-03-29T04:49:05;97038.34;;;2.05;100.00
48077;BME280;33854;57.708;12.008;2023-03-29T04:51:31;97035.47;;;2.09;100.00
48077;BME280;33854;57.708;12.008;2023-03-29T04:53:57;97007.88;;;2.11;100.00
48077;BME280;33854;57.708;12.008;2023-03-29T04:56:23;96995.84;;;2.12;100.00
48077;BME280;33854;57.708;12.008;2023-03-29T04:58:48;96971.06;;;2.11;100.00
48077;BME280;33854;57.708;12.008;2023-03-29T05:01:14;96957.50;;;2.09;100.00
48077;BME280;33854;57.708;12.008;2023-03-29T05:03:40;96950.25;;;2.14;100.00
48077;BME280;33854;57.708;12.008;2023-03-29T05:06:08;96946.88;;;2.13;100.00
48077;BME280;33854;57.708;12.008;2023-03-29T05:08:35;96956.09;;;2.16;100.00
48077;BME280;33854;57.708;12.008;2023-03-29T05:11:08;96939.63;;;2.18;100.00
48077;BME280;33854;57.708;12.008;2023-03-29T05:13:35;96948.28;;;2.17;100.00
48077;BME280;33854;57.708;12.008;2023-03-29T05:16:01;96933.47;;;2.21;100.00
48077;BME280;33854;57.708;12.008;2023-03-29T05:18:28;96923.19;;;2.21;100.00
48077;BME280;33854;57.708;12.008;2023-03-29T05:20:54;96904.56;;;2.17;100.00
48077;BME280;33854;57.708;12.008;2023-03-29T05:23:20;96906.69;;;2.23;100.00
48077;BME280;33854;57.708;12.008;2023-03-29T05:25:49;96890.31;;;2.24;100.00
48077;BME280;33854;57.708;12.008;2023-03-29T05:28:15;96891.13;;;2.25;100.00
48077;BME280;33854;57.708;12.008;2023-03-29T05:30:41;96893.72;;;2.25;100.00
48077;BME280;33854;57.708;12.008;2023-03-29T05:33:07;96899.56;;;2.27;100.00
48077;BME280;33854;57.708;12.008;2023-03-29T05:35:33;96887.41;;;2.29;100.00
48077;BME280;33854;57.708;12.008;2023-03-29T05:38:00;96889.03;;;2.30;100.00
48077;BME280;33854;57.708;12.008;2023-03-29T05:40:26;96894.19;;;2.30;100.00
48077;BME280;33854;57.708;12.008;2023-03-29T05:42:52;96897.34;;;2.34;100.00
48077;BME280;33854;57.708;12.008;2023-03-29T05:45:18;96889.63;;;2.34;100.00
48077;BME280;33854;57.708;12.008;2023-03-29T05:47:44;96881.59;;;2.38;100.00
48077;BME280;33854;57.708;12.008;2023-03-29T05:50:10;96875.03;;;2.34;100.00
48077;BME280;33854;57.708;12.008;2023-03-29T05:52:36;96870.59;;;2.36;100.00
48077;BME280;33854;57.708;12.008;2023-03-29T05:55:03;96873.88;;;2.38;100.00
48077;BME280;33854;57.708;12.008;2023-03-29T05:57:28;96857.72;;;2.36;100.00
48077;BME280;33854;57.708;12.008;2023-03-29T05:59:54;96862.75;;;2.38;100.00
48077;BME280;33854;57.708;12.008;2023-03-29T06:02:20;96868.59;;;2.40;100.00
48077;BME280;33854;57.708;12.008;2023-03-29T06:04:46;96871.41;;;2.37;100.00
48077;BME280;33854;57.708;12.008;2023-03-29T06:07:11;96854.81;;;2.41;100.00
48077;BME280;33854;57.708;12.008;2023-03-29T06:09:37;96849.44;;;2.44;100.00
48077;BME280;33854;57.708;12.008;2023-03-29T06:12:04;96862.31;;;2.44;100.00
48077;BME280;33854;57.708;12.008;2023-03-29T06:14:30;96850.59;;;2.40;100.00
48077;BME280;33854;57.708;12.008;2023-03-29T06:16:55;96840.91;;;2.43;100.00
48077;BME280;33854;57.708;12.008;2023-03-29T06:19:21;96828.84;;;2.44;100.00
48077;BME280;33854;57.708;12.008;2023-03-29T06:21:47;96822.75;;;2.45;100.00
48077;BME280;33854;57.708;12.008;2023-03-29T06:24:12;96818.34;;;2.47;100.00
48077;BME280;33854;57.708;12.008;2023-03-29T06:26:38;96798.06;;;2.42;100.00
48077;BME280;33854;57.708;12.008;2023-03-29T06:29:03;96803.81;;;2.46;100.00
48077;BME280;33854;57.708;12.008;2023-03-29T06:31:29;96798.78;;;2.44;100.00
48077;BME280;33854;57.708;12.008;2023-03-29T06:33:55;96792.84;;;2.44;100.00
48077;BME280;33854;57.708;12.008;2023-03-29T06:36:22;96769.44;;;2.47;100.00
48077;BME280;33854;57.708;12.008;2023-03-29T06:38:48;96767.09;;;2.44;100.00
48077;BME280;33854;57.708;12.008;2023-03-29T06:41:13;96773.63;;;2.48;100.00
48077;BME280;33854;57.708;12.008;2023-03-29T06:43:40;96753.75;;;2.50;100.00
48077;BME280;33854;57.708;12.008;2023-03-29T06:46:06;96741.94;;;2.47;100.00
48077;BME280;33854;57.708;12.008;2023-03-29T06:48:36;96732.47;;;2.48;100.00
48077;BME280;33854;57.708;12.008;2023-03-29T06:51:03;96721.09;;;2.50;100.00
48077;BME280;33854;57.708;12.008;2023-03-29T06:53:28;96716.78;;;2.51;100.00
48077;BME280;33854;57.708;12.008;2023-03-29T06:55:55;96721.84;;;2.52;100.00
48077;BME280;33854;57.708;12.008;2023-03-29T06:58:20;96693.63;;;2.51;100.00
48077;BME280;33854;57.708;12.008;2023-03-29T07:00:46;96708.13;;;2.52;100.00
48077;BME280;33854;57.708;12.008;2023-03-29T07:03:11;96705.44;;;2.53;100.00
48077;BME280;33854;57.708;12.008;2023-03-29T07:05:46;96701.25;;;2.52;100.00
48077;BME280;33854;57.708;12.008;2023-03-29T07:08:12;96701.47;;;2.49;100.00
48077;BME280;33854;57.708;12.008;2023-03-29T07:10:42;96697.47;;;2.56;100.00
48077;BME280;33854;57.708;12.008;2023-03-29T07:13:09;96697.47;;;2.56;100.00
48077;BME280;33854;57.708;12.008;2023-03-29T07:15:39;96700.06;;;2.56;100.00
48077;BME280;33854;57.708;12.008;2023-03-29T07:18:06;96691.97;;;2.50;100.00
48077;BME280;33854;57.708;12.008;2023-03-29T07:20:32;96713.88;;;2.55;100.00
48077;BME280;33854;57.708;12.008;2023-03-29T07:22:58;96706.25;;;2.54;100.00
48077;BME280;33854;57.708;12.008;2023-03-29T07:25:24;96710.59;;;2.53;100.00
48077;BME280;33854;57.708;12.008;2023-03-29T07:27:52;96708.84;;;2.54;100.00
48077;BME280;33854;57.708;12.008;2023-03-29T07:30:20;96692.72;;;2.41;100.00
48077;BME280;33854;57.708;12.008;2023-03-29T07:32:48;96710.47;;;2.55;100.00
48077;BME280;33854;57.708;12.008;2023-03-29T07:35:15;96716.31;;;2.57;100.00
48077;BME280;33854;57.708;12.008;2023-03-29T07:37:41;96711.75;;;2.60;100.00
48077;BME280;33854;57.708;12.008;2023-03-29T07:40:10;96727.78;;;2.64;100.00
48077;BME280;33854;57.708;12.008;2023-03-29T07:42:46;96737.13;;;2.65;100.00
48077;BME280;33854;57.708;12.008;2023-03-29T07:45:13;96734.56;;;2.65;100.00
48077;BME280;33854;57.708;12.008;2023-03-29T07:47:43;96743.00;;;2.67;100.00
48077;BME280;33854;57.708;12.008;2023-03-29T07:50:09;96743.00;;;2.67;100.00
48077;BME280;33854;57.708;12.008;2023-03-29T07:52:36;96751.41;;;2.69;100.00
48077;BME280;33854;57.708;12.008;2023-03-29T07:55:04;96746.94;;;2.71;100.00
48077;BME280;33854;57.708;12.008;2023-03-29T07:57:29;96756.31;;;2.72;100.00
48077;BME280;33854;57.708;12.008;2023-03-29T07:59:55;96758.91;;;2.72;100.00
48077;BME280;33854;57.708;12.008;2023-03-29T08:02:20;96763.09;;;2.73;100.00
48077;BME280;33854;57.708;12.008;2023-03-29T08:04:46;96758.06;;;2.71;100.00
48077;BME280;33854;57.708;12.008;2023-03-29T08:07:13;96755.25;;;2.74;100.00
48077;BME280;33854;57.708;12.008;2023-03-29T08:09:38;96762.63;;;2.79;100.00
48077;BME280;33854;57.708;12.008;2023-03-29T08:12:05;96764.28;;;2.80;100.00
48077;BME280;33854;57.708;12.008;2023-03-29T08:14:30;96757.69;;;2.87;100.00
48077;BME280;33854;57.708;12.008;2023-03-29T08:16:56;96754.44;;;2.85;100.00
48077;BME280;33854;57.708;12.008;2023-03-29T08:19:22;96756.41;;;2.81;100.00
48077;BME280;33854;57.708;12.008;2023-03-29T08:21:47;96766.25;;;2.87;100.00
48077;BME280;33854;57.708;12.008;2023-03-29T08:24:13;96771.38;;;2.87;100.00
48077;BME280;33854;57.708;12.008;2023-03-29T08:26:39;96772.91;;;2.90;100.00
48077;BME280;33854;57.708;12.008;2023-03-29T08:29:05;96765.06;;;2.92;100.00
48077;BME280;33854;57.708;12.008;2023-03-29T08:31:32;96762.16;;;2.85;100.00
48077;BME280;33854;57.708;12.008;2023-03-29T08:33:58;96768.25;;;2.95;100.00
48077;BME280;33854;57.708;12.008;2023-03-29T08:36:23;96766.72;;;2.93;100.00
48077;BME280;33854;57.708;12.008;2023-03-29T08:38:49;96773.72;;;3.02;100.00
48077;BME280;33854;57.708;12.008;2023-03-29T08:49:44;96768.31;;;3.05;100.00
48077;BME280;33854;57.708;12.008;2023-03-29T08:52:37;96771.81;;;3.15;100.00
48077;BME280;33854;57.708;12.008;2023-03-29T08:55:06;96766.28;;;3.19;100.00
48077;BME280;33854;57.708;12.008;2023-03-29T08:57:40;96763.47;;;3.22;100.00
48077;BME280;33854;57.708;12.008;2023-03-29T09:00:19;96761.00;;;3.32;100.00
48077;BME280;33854;57.708;12.008;2023-03-29T09:02:47;96781.47;;;3.33;100.00
48077;BME280;33854;57.708;12.008;2023-03-29T09:05:21;96787.34;;;3.35;100.00
48077;BME280;33854;57.708;12.008;2023-03-29T09:07:48;96775.72;;;3.41;100.00
48077;BME280;33854;57.708;12.008;2023-03-29T09:10:17;96775.72;;;3.41;100.00
48077;BME280;33854;57.708;12.008;2023-03-29T09:15:18;96761.28;;;3.50;100.00
48077;BME280;33854;57.708;12.008;2023-03-29T09:18:10;96763.38;;;3.56;100.00
48077;BME280;33854;57.708;12.008;2023-03-29T09:20:48;96751.88;;;3.60;100.00
48077;BME280;33854;57.708;12.008;2023-03-29T09:31:31;96752.31;;;3.65;100.00
48077;BME280;33854;57.708;12.008;2023-03-29T09:34:03;96741.88;;;3.66;100.00
48077;BME280;33854;57.708;12.008;2023-03-29T09:36:53;96746.84;;;3.79;100.00
48077;BME280;33854;57.708;12.008;2023-03-29T09:39:21;96757.28;;;3.77;100.00
48077;BME280;33854;57.708;12.008;2023-03-29T09:42:07;96779.81;;;3.75;100.00
48077;BME280;33854;57.708;12.008;2023-03-29T09:44:40;96787.91;;;3.71;100.00
48077;BME280;33854;57.708;12.008;2023-03-29T09:47:17;96811.94;;;3.71;100.00
48077;BME280;33854;57.708;12.008;2023-03-29T09:49:50;96824.72;;;3.73;100.00
48077;BME280;33854;57.708;12.008;2023-03-29T09:52:17;96833.50;;;3.70;100.00
48077;BME280;33854;57.708;12.008;2023-03-29T09:54:44;96840.06;;;3.74;100.00
48077;BME280;33854;57.708;12.008;2023-03-29T09:57:14;96849.31;;;3.77;100.00
48077;BME280;33854;57.708;12.008;2023-03-29T09:59:41;96855.28;;;3.77;100.00
48077;BME280;33854;57.708;12.008;2023-03-29T10:02:08;96867.34;;;3.77;100.00
48077;BME280;33854;57.708;12.008;2023-03-29T10:04:35;96858.00;;;3.76;100.00
48077;BME280;33854;57.708;12.008;2023-03-29T10:07:01;96859.63;;;3.77;100.00
48077;BME280;33854;57.708;12.008;2023-03-29T10:09:29;96861.03;;;3.81;100.00
48077;BME280;33854;57.708;12.008;2023-03-29T10:11:57;96870.38;;;3.82;100.00
48077;BME280;33854;57.708;12.008;2023-03-29T10:14:33;96878.38;;;3.79;100.00
48077;BME280;33854;57.708;12.008;2023-03-29T10:17:02;96883.91;;;3.74;100.00
48077;BME280;33854;57.708;12.008;2023-03-29T10:19:31;96890.56;;;3.77;100.00
48077;BME280;33854;57.708;12.008;2023-03-29T10:22:17;96888.69;;;3.79;100.00
48077;BME280;33854;57.708;12.008;2023-03-29T10:24:50;96874.88;;;3.69;100.00
48077;BME280;33854;57.708;12.008;2023-03-29T10:27:19;96888.69;;;3.79;100.00
48077;BME280;33854;57.708;12.008;2023-03-29T10:29:46;96890.31;;;3.80;100.00
48077;BME280;33854;57.708;12.008;2023-03-29T10:32:16;96889.16;;;3.84;100.00
48077;BME280;33854;57.708;12.008;2023-03-29T10:34:48;96874.84;;;3.80;100.00
48077;BME280;33854;57.708;12.008;2023-03-29T10:37:17;96888.94;;;3.76;100.00
48077;BME280;33854;57.708;12.008;2023-03-29T10:39:45;96895.13;;;3.73;100.00
48077;BME280;33854;57.708;12.008;2023-03-29T10:42:17;96900.44;;;3.72;100.00
48077;BME280;33854;57.708;12.008;2023-03-29T10:44:55;96883.66;;;3.77;100.00
48077;BME280;33854;57.708;12.008;2023-03-29T10:47:21;96877.22;;;3.72;100.00
48077;BME280;33854;57.708;12.008;2023-03-29T10:49:52;96875.47;;;3.72;100.00
48077;BME280;33854;57.708;12.008;2023-03-29T10:52:19;96872.91;;;3.72;100.00
48077;BME280;33854;57.708;12.008;2023-03-29T10:54:46;96871.81;;;3.75;100.00
48077;BME280;33854;57.708;12.008;2023-03-29T10:57:18;96854.94;;;3.71;100.00
48077;BME280;33854;57.708;12.008;2023-03-29T11:00:19;96855.44;;;3.76;100.00
48077;BME280;33854;57.708;12.008;2023-03-29T11:02:56;96838.16;;;3.76;100.00
48077;BME280;33854;57.708;12.008;2023-03-29T11:05:57;96834.03;;;3.85;100.00
48077;BME280;33854;57.708;12.008;2023-03-29T11:08:57;96819.75;;;3.81;100.00
48077;BME280;33854;57.708;12.008;2023-03-29T11:27:11;96864.78;;;4.09;100.00
48077;BME280;33854;57.708;12.008;2023-03-29T11:29:58;96909.13;;;4.02;100.00
48077;BME280;33854;57.708;12.008;2023-03-29T11:43:40;96989.56;;;4.50;100.00
48077;BME280;33854;57.708;12.008;2023-03-29T11:46:22;97010.81;;;4.75;100.00
48077;BME280;33854;57.708;12.008;2023-03-29T11:48:55;97116.47;;;4.78;100.00
48077;BME280;33854;57.708;12.008;2023-03-29T11:51:31;97246.31;;;4.69;100.00
48077;BME280;33854;57.708;12.008;2023-03-29T11:54:18;97436.31;;;4.73;100.00
48077;BME280;33854;57.708;12.008;2023-03-29T11:56:52;97580.47;;;4.68;100.00
48077;BME280;33854;57.708;12.008;2023-03-29T11:59:39;97587.06;;;4.72;100.00
48077;BME280;33854;57.708;12.008;2023-03-29T12:02:16;97622.16;;;4.74;100.00
48077;BME280;33854;57.708;12.008;2023-03-29T12:04:48;97640.25;;;4.74;100.00
48077;BME280;33854;57.708;12.008;2023-03-29T12:07:21;97655.31;;;4.80;100.00
48077;BME280;33854;57.708;12.008;2023-03-29T12:09:52;97682.63;;;4.72;100.00
48077;BME280;33854;57.708;12.008;2023-03-29T12:12:25;97722.09;;;4.74;100.00
48077;BME280;33854;57.708;12.008;2023-03-29T12:15:24;97772.53;;;4.79;100.00
48077;BME280;33854;57.708;12.008;2023-03-29T12:17:57;97767.03;;;4.84;100.00
48077;BME280;33854;57.708;12.008;2023-03-29T12:20:28;97780.88;;;4.83;100.00
48077;BME280;33854;57.708;12.008;2023-03-29T12:22:56;97842.38;;;4.65;100.00
48077;BME280;33854;57.708;12.008;2023-03-29T12:25:39;97878.22;;;4.57;100.00
48077;BME280;33854;57.708;12.008;2023-03-29T12:31:56;97869.34;;;4.61;100.00
48077;BME280;33854;57.708;12.008;2023-03-29T12:37:00;97810.66;;;4.76;100.00
48077;BME280;33854;57.708;12.008;2023-03-29T12:39:29;97832.75;;;4.80;100.00
48077;BME280;33854;57.708;12.008;2023-03-29T12:42:14;97893.97;;;4.79;100.00
48077;BME280;33854;57.708;12.008;2023-03-29T12:45:01;97956.56;;;4.83;100.00
48077;BME280;33854;57.708;12.008;2023-03-29T12:47:32;97993.06;;;4.78;100.00
48077;BME280;33854;57.708;12.008;2023-03-29T12:50:01;98037.25;;;4.74;100.00
48077;BME280;33854;57.708;12.008;2023-03-29T12:52:33;98025.63;;;4.81;100.00
48077;BME280;33854;57.708;12.008;2023-03-29T12:55:02;98021.59;;;4.89;100.00
48077;BME280;33854;57.708;12.008;2023-03-29T12:57:40;98073.81;;;4.94;100.00
48077;BME280;33854;57.708;12.008;2023-03-29T13:00:20;98145.97;;;4.97;100.00
48077;BME280;33854;57.708;12.008;2023-03-29T13:03:19;98232.84;;;5.00;100.00
48077;BME280;33854;57.708;12.008;2023-03-29T13:05:43;98258.69;;;5.00;100.00
48077;BME280;33854;57.708;12.008;2023-03-29T13:08:42;98254.91;;;4.91;100.00
48077;BME280;33854;57.708;12.008;2023-03-29T13:11:24;98274.41;;;4.83;100.00
48077;BME280;33854;57.708;12.008;2023-03-29T13:13:51;98281.97;;;4.86;100.00
48077;BME280;33854;57.708;12.008;2023-03-29T13:16:26;98281.59;;;4.78;100.00
48077;BME280;33854;57.708;12.008;2023-03-29T13:19:12;98309.84;;;4.81;100.00
48077;BME280;33854;57.708;12.008;2023-03-29T13:28:04;98325.81;;;4.87;100.00
48077;BME280;33854;57.708;12.008;2023-03-29T13:33:49;98425.31;;;4.94;100.00
48077;BME280;33854;57.708;12.008;2023-03-29T13:39:02;98421.00;;;4.51;100.00
48077;BME280;33854;57.708;12.008;2023-03-29T13:44:15;98442.06;;;4.29;100.00
48077;BME280;33854;57.708;12.008;2023-03-29T13:46:48;98421.75;;;4.23;100.00
48077;BME280;33854;57.708;12.008;2023-03-29T13:49:26;98421.59;;;4.11;100.00
48077;BME280;33854;57.708;12.008;2023-03-29T13:54:28;98432.75;;;4.11;100.00
48077;BME280;33854;57.708;12.008;2023-03-29T13:56:57;98389.41;;;4.32;100.00
48077;BME280;33854;57.708;12.008;2023-03-29T14:02:39;98435.66;;;4.94;100.00
48077;BME280;33854;57.708;12.008;2023-03-29T14:05:08;98602.41;;;4.86;100.00
48077;BME280;33854;57.708;12.008;2023-03-29T14:07:38;98693.72;;;4.86;100.00
48077;BME280;33854;57.708;12.008;2023-03-29T14:10:04;98821.13;;;5.04;100.00
48077;BME280;33854;57.708;12.008;2023-03-29T14:12:35;98943.84;;;5.30;100.00
48077;BME280;33854;57.708;12.008;2023-03-29T14:15:04;99039.59;;;5.45;100.00
48077;BME280;33854;57.708;12.008;2023-03-29T14:17:30;99147.63;;;5.57;100.00
48077;BME280;33854;57.708;12.008;2023-03-29T14:19:58;99221.63;;;5.79;100.00
48077;BME280;33854;57.708;12.008;2023-03-29T14:22:30;99291.97;;;5.69;100.00
48077;BME280;33854;57.708;12.008;2023-03-29T14:25:01;99339.94;;;5.77;100.00
48077;BME280;33854;57.708;12.008;2023-03-29T14:27:30;99366.00;;;5.55;100.00
48077;BME280;33854;57.708;12.008;2023-03-29T14:29:56;99384.41;;;5.11;100.00